createdAt,value
2023-03-06T00:00:34.706Z,2.19
2023-03-06T00:03:16.795Z,2.18
2023-03-06T00:05:45.517Z,2.16
2023-03-06T00:08:14.491Z,2.15
2023-03-06T00:10:43.195Z,2.14
2023-03-06T00:13:15.456Z,2.14
2023-03-06T00:15:43.768Z,2.13
2023-03-06T00:18:12.243Z,2.13
2023-03-06T00:20:42.855Z,2.14
2023-03-06T00:23:11.452Z,2.14
2023-03-06T00:25:46.287Z,2.15
2023-03-06T00:28:16.035Z,2.15
2023-03-06T00:30:44.687Z,2.17
2023-03-06T00:33:13.166Z,2.16
2023-03-06T00:35:42.188Z,2.19
2023-03-06T00:38:12.755Z,2.24
2023-03-06T00:40:41.393Z,2.28
2023-03-06T00:43:10.289Z,2.32
2023-03-06T00:45:39.242Z,2.34
2023-03-06T00:48:10.534Z,2.36
2023-03-06T00:50:38.740Z,2.35
2023-03-06T00:53:07.023Z,2.34
2023-03-06T00:55:35.682Z,2.35
2023-03-06T00:58:04.275Z,2.36
2023-03-06T01:00:32.559Z,2.35
2023-03-06T01:03:00.843Z,2.36
2023-03-06T01:05:35.771Z,2.35
2023-03-06T01:08:05.403Z,2.35
2023-03-06T01:10:33.674Z,2.36
2023-03-06T01:13:02.258Z,2.37
2023-03-06T01:15:30.547Z,2.37
2023-03-06T01:17:59.448Z,2.38
2023-03-06T01:20:28.756Z,2.39
2023-03-06T01:22:57.022Z,2.40
2023-03-06T01:25:25.991Z,2.41
2023-03-06T01:27:54.405Z,2.40
2023-03-06T01:30:22.689Z,2.40
2023-03-06T01:32:50.964Z,2.40
2023-03-06T01:35:19.396Z,2.40
2023-03-06T01:37:48.047Z,2.40
2023-03-06T01:40:17.038Z,2.38
2023-03-06T01:42:49.524Z,2.37
2023-03-06T01:45:17.805Z,2.36
2023-03-06T01:47:46.240Z,2.36
2023-03-06T01:50:14.775Z,2.36
2023-03-06T01:52:52.064Z,2.35
2023-03-06T01:55:26.340Z,2.33
2023-03-06T01:58:01.532Z,2.34
2023-03-06T02:00:30.898Z,2.37
2023-03-06T02:03:06.916Z,2.41
2023-03-06T02:05:41.098Z,2.47
2023-03-06T02:08:13.797Z,2.52
2023-03-06T02:11:02.442Z,2.57
2023-03-06T02:13:31.433Z,2.61
2023-03-06T02:16:00.237Z,2.63
2023-03-06T02:18:29.920Z,2.65
2023-03-06T02:21:02.447Z,2.66
2023-03-06T02:23:56.600Z,2.63
2023-03-06T02:26:27.026Z,2.61
2023-03-06T02:28:58.691Z,2.60
2023-03-06T02:31:31.267Z,2.60
2023-03-06T02:34:13.988Z,2.59
2023-03-06T02:37:00.879Z,2.57
2023-03-06T02:39:33.990Z,2.55
2023-03-06T02:42:02.679Z,2.52
2023-03-06T02:44:34.862Z,2.51
2023-03-06T02:47:03.542Z,2.50
2023-03-06T02:49:31.810Z,2.48
2023-03-06T02:52:00.136Z,2.47
2023-03-06T02:54:28.575Z,2.44
2023-03-06T02:56:57.472Z,2.41
2023-03-06T02:59:26.697Z,2.41
2023-03-06T03:01:55.772Z,2.40
2023-03-06T03:04:27.007Z,2.38
2023-03-06T03:06:55.513Z,2.39
2023-03-06T03:09:24.301Z,2.38
2023-03-06T03:11:53.015Z,2.40
2023-03-06T03:14:24.146Z,2.42
2023-03-06T03:16:52.324Z,2.42
2023-03-06T03:19:21.112Z,2.43
2023-03-06T03:21:52.063Z,2.44
2023-03-06T03:24:23.083Z,2.46
2023-03-06T03:26:52.417Z,2.50
2023-03-06T03:29:21.925Z,2.54
2023-03-06T03:31:53.155Z,2.58
2023-03-06T03:34:21.662Z,2.61
2023-03-06T03:36:56.520Z,2.63
2023-03-06T03:39:25.200Z,2.64
2023-03-06T03:41:54.441Z,2.68
2023-03-06T03:44:24.813Z,2.70
2023-03-06T03:46:54.028Z,2.75
2023-03-06T03:49:27.228Z,2.78
2023-03-06T03:51:58.779Z,2.80
2023-03-06T03:54:29.334Z,2.80
2023-03-06T03:56:58.620Z,2.79
2023-03-06T03:59:30.685Z,2.78
2023-03-06T04:02:21.978Z,2.75
2023-03-06T04:05:07.292Z,2.72
2023-03-06T04:07:35.853Z,2.71
2023-03-06T04:10:09.241Z,2.70
2023-03-06T04:12:37.947Z,2.67
2023-03-06T04:15:08.264Z,2.64
2023-03-06T04:17:37.061Z,2.61
2023-03-06T04:20:07.866Z,2.57
2023-03-06T04:22:36.294Z,2.53
2023-03-06T04:25:05.704Z,2.51
2023-03-06T04:27:34.069Z,2.48
2023-03-06T04:30:02.359Z,2.45
2023-03-06T04:32:32.560Z,2.41
2023-03-06T04:35:02.306Z,2.36
2023-03-06T04:37:34.776Z,2.33
2023-03-06T04:40:06.687Z,2.31
2023-03-06T04:42:35.224Z,2.31
2023-03-06T04:45:03.820Z,2.30
2023-03-06T04:47:33.120Z,2.29
2023-03-06T04:50:01.853Z,2.28
2023-03-06T04:52:30.098Z,2.27
2023-03-06T04:54:59.095Z,2.27
2023-03-06T04:57:27.581Z,2.28
2023-03-06T04:59:56.167Z,2.29
2023-03-06T05:02:24.890Z,2.29
2023-03-06T05:04:53.241Z,2.28
2023-03-06T05:07:21.524Z,2.35
2023-03-06T05:09:50.219Z,2.38
2023-03-06T05:12:18.431Z,2.39
2023-03-06T05:14:55.742Z,2.41
2023-03-06T05:17:26.938Z,2.42
2023-03-06T05:19:55.633Z,2.44
2023-03-06T05:22:24.310Z,2.47
2023-03-06T05:24:53.442Z,2.49
2023-03-06T05:27:21.796Z,2.50
2023-03-06T05:29:50.081Z,2.52
2023-03-06T05:32:18.730Z,2.56
2023-03-06T05:34:48.274Z,2.59
2023-03-06T05:37:16.869Z,2.70
2023-03-06T05:39:45.882Z,2.77
2023-03-06T05:42:14.567Z,2.80
2023-03-06T05:44:43.093Z,2.83
2023-03-06T05:47:12.183Z,2.86
2023-03-06T05:49:40.639Z,2.88
2023-03-06T05:52:17.730Z,2.91
2023-03-06T05:54:51.451Z,2.94
2023-03-06T05:57:24.098Z,2.96
2023-03-06T05:59:52.409Z,3.03
2023-03-06T06:02:20.924Z,3.07
2023-03-06T06:04:49.578Z,3.11
2023-03-06T06:07:18.064Z,3.17
2023-03-06T06:09:46.671Z,3.20
2023-03-06T06:12:15.441Z,3.25
2023-03-06T06:14:43.826Z,3.29
2023-03-06T06:17:12.841Z,3.34
2023-03-06T06:19:41.108Z,3.39
2023-03-06T06:22:09.592Z,3.46
2023-03-06T06:24:39.003Z,3.51
2023-03-06T06:27:08.409Z,3.57
2023-03-06T06:29:37.319Z,3.62
2023-03-06T06:32:06.005Z,3.67
2023-03-06T06:34:34.895Z,3.72
2023-03-06T06:37:03.395Z,3.78
2023-03-06T06:39:31.756Z,3.84
2023-03-06T06:42:26.581Z,3.90
2023-03-06T06:44:55.053Z,3.97
2023-03-06T06:47:25.350Z,4.04
2023-03-06T06:49:56.019Z,4.10
2023-03-06T06:52:25.590Z,4.18
2023-03-06T06:54:54.301Z,4.27
2023-03-06T06:57:22.791Z,4.38
2023-03-06T06:59:53.817Z,4.50
2023-03-06T07:02:22.847Z,4.61
2023-03-06T07:05:03.035Z,4.74
2023-03-06T07:07:38.138Z,4.87
2023-03-06T07:10:08.321Z,4.97
2023-03-06T07:12:37.344Z,5.06
2023-03-06T07:15:07.094Z,5.16
2023-03-06T07:17:35.546Z,5.28
2023-03-06T07:20:07.225Z,5.37
2023-03-06T07:22:49.906Z,5.48
2023-03-06T07:25:20.208Z,5.54
2023-03-06T07:27:54.196Z,5.60
2023-03-06T07:30:23.983Z,5.67
2023-03-06T07:32:54.729Z,5.81
2023-03-06T07:35:24.240Z,5.92
2023-03-06T07:37:53.534Z,6.00
2023-03-06T07:40:22.320Z,6.09
2023-03-06T07:42:54.204Z,6.20
2023-03-06T07:45:26.998Z,6.34
2023-03-06T07:47:55.489Z,6.49
2023-03-06T07:50:23.741Z,6.61
2023-03-06T07:52:54.205Z,6.70
2023-03-06T07:55:23.188Z,6.82
2023-03-06T07:57:52.276Z,6.96
2023-03-06T08:00:21.164Z,7.07
2023-03-06T08:02:50.003Z,7.19
2023-03-06T08:05:18.451Z,7.28
2023-03-06T08:07:46.840Z,7.42
2023-03-06T08:10:17.533Z,7.54
2023-03-06T08:12:46.067Z,7.63
2023-03-06T08:15:14.843Z,7.70
2023-03-06T08:17:43.337Z,7.72
2023-03-06T08:20:14.481Z,7.78
2023-03-06T08:22:42.781Z,7.81
2023-03-06T08:25:13.561Z,7.92
2023-03-06T08:27:44.559Z,8.00
2023-03-06T08:30:13.501Z,7.97
2023-03-06T08:32:42.398Z,8.00
2023-03-06T08:35:15.445Z,8.15
2023-03-06T08:37:43.799Z,8.36
2023-03-06T08:40:13.568Z,8.57
2023-03-06T08:42:41.916Z,8.74
2023-03-06T08:45:10.606Z,8.94
2023-03-06T08:47:39.506Z,9.12
2023-03-06T08:50:08.406Z,9.25
2023-03-06T08:52:36.676Z,9.40
2023-03-06T08:55:05.723Z,9.53
2023-03-06T08:57:33.959Z,9.66
2023-03-06T09:00:02.143Z,9.76
2023-03-06T09:02:30.661Z,9.97
2023-03-06T09:05:01.533Z,10.12
2023-03-06T09:07:30.576Z,10.27
2023-03-06T09:09:59.760Z,10.41
2023-03-06T09:12:30.743Z,10.48
2023-03-06T09:14:59.419Z,10.54
2023-03-06T09:17:27.709Z,10.72
2023-03-06T09:19:56.077Z,11.01
2023-03-06T09:22:24.866Z,11.31
2023-03-06T09:24:54.335Z,11.57
2023-03-06T09:27:23.183Z,11.90
2023-03-06T09:29:51.564Z,12.35
2023-03-06T09:32:20.416Z,13.03
2023-03-06T09:34:49.146Z,13.81
2023-03-06T09:37:18.359Z,14.50
2023-03-06T09:39:46.731Z,15.11
2023-03-06T09:42:21.855Z,15.65
2023-03-06T09:44:56.047Z,16.20
2023-03-06T09:47:49.349Z,16.73
2023-03-06T09:51:02.337Z,17.29
2023-03-06T09:53:48.211Z,17.72
2023-03-06T09:56:25.203Z,18.28
2023-03-06T09:58:59.726Z,18.84
2023-03-06T10:01:33.229Z,19.00
2023-03-06T10:04:19.419Z,19.39
2023-03-06T10:06:51.082Z,19.59
2023-03-06T10:09:22.119Z,19.76
2023-03-06T10:11:58.952Z,19.85
2023-03-06T10:14:45.035Z,19.58
2023-03-06T10:17:21.253Z,19.77
2023-03-06T10:19:50.422Z,19.48
2023-03-06T10:23:01.312Z,18.66
2023-03-06T10:25:37.915Z,17.26
2023-03-06T10:28:25.197Z,16.11
2023-03-06T10:31:11.828Z,15.12
2023-03-06T10:34:08.326Z,14.09
2023-03-06T10:36:36.808Z,13.32
2023-03-06T10:39:15.118Z,13.07
2023-03-06T10:41:46.274Z,12.80
2023-03-06T10:44:14.781Z,12.80
2023-03-06T10:46:46.949Z,12.94
2023-03-06T10:49:15.311Z,13.25
2023-03-06T10:52:19.002Z,14.08
2023-03-06T10:54:50.854Z,14.17
2023-03-06T10:57:31.795Z,14.15
2023-03-06T11:00:05.338Z,14.00
2023-03-06T11:02:41.255Z,13.87
2023-03-06T11:05:20.846Z,13.64
2023-03-06T11:07:59.485Z,13.40
2023-03-06T11:10:31.123Z,13.15
2023-03-06T11:13:00.927Z,12.85
2023-03-06T11:15:30.035Z,12.64
2023-03-06T11:17:58.749Z,12.30
2023-03-06T11:20:50.101Z,11.87
2023-03-06T11:23:44.558Z,11.52
2023-03-06T11:26:15.648Z,11.33
2023-03-06T11:29:17.939Z,11.02
2023-03-06T11:32:02.712Z,10.77
2023-03-06T11:34:44.685Z,10.58
2023-03-06T11:37:31.973Z,10.46
2023-03-06T11:40:21.031Z,10.30
2023-03-06T11:43:18.381Z,10.13
2023-03-06T11:45:55.763Z,9.89
2023-03-06T11:48:31.311Z,9.76
2023-03-06T11:51:12.696Z,9.58
2023-03-06T11:53:42.917Z,9.46
2023-03-06T11:56:20.412Z,9.41
2023-03-06T11:59:14.582Z,9.41
2023-03-06T12:01:50.553Z,9.40
2023-03-06T12:04:43.297Z,9.33
2023-03-06T12:07:45.176Z,9.20
2023-03-06T12:10:19.354Z,9.20
2023-03-06T12:13:03.186Z,9.25
2023-03-06T12:15:50.505Z,9.31
2023-03-06T12:18:37.610Z,9.39
2023-03-06T12:21:09.987Z,9.38
2023-03-06T12:23:58.639Z,9.44
2023-03-06T12:26:44.008Z,9.62
2023-03-06T12:29:35.837Z,9.91
2023-03-06T12:32:41.689Z,10.20
2023-03-06T12:35:39.048Z,10.43
2023-03-06T12:38:26.327Z,10.61
2023-03-06T12:41:04.121Z,10.76
2023-03-06T12:43:53.900Z,10.79
2023-03-06T12:46:28.454Z,10.80
2023-03-06T12:49:06.219Z,10.96
2023-03-06T12:51:35.130Z,11.11
2023-03-06T12:54:03.812Z,11.08
2023-03-06T12:56:34.575Z,10.90
2023-03-06T12:59:03.238Z,10.65
2023-03-06T13:01:46.924Z,10.53
2023-03-06T13:05:07.142Z,10.41
2023-03-06T13:07:55.785Z,10.25
2023-03-06T13:10:35.332Z,10.09
2023-03-06T13:13:05.410Z,10.00
2023-03-06T13:15:42.820Z,9.97
2023-03-06T13:18:23.433Z,10.01
2023-03-06T13:20:51.686Z,10.00
2023-03-06T13:23:51.796Z,10.03
2023-03-06T13:26:26.216Z,10.02
2023-03-06T13:28:57.965Z,9.95
2023-03-06T13:31:51.534Z,9.85
2023-03-06T13:34:32.312Z,9.91
2023-03-06T13:37:20.030Z,10.60
2023-03-06T13:39:54.447Z,11.69
2023-03-06T13:42:35.215Z,12.01
2023-03-06T13:45:08.261Z,12.01
2023-03-06T13:48:21.034Z,12.15
2023-03-06T13:50:49.622Z,11.95
2023-03-06T13:53:40.897Z,11.94
2023-03-06T13:56:43.538Z,12.19
2023-03-06T14:00:03.193Z,12.51
2023-03-06T14:03:10.924Z,12.29
2023-03-06T14:05:44.402Z,12.58
2023-03-06T14:08:24.893Z,13.14
2023-03-06T14:11:05.012Z,13.94
2023-03-06T14:13:45.493Z,14.31
2023-03-06T14:16:22.802Z,14.59
2023-03-06T14:18:54.293Z,14.70
2023-03-06T14:21:30.780Z,14.99
2023-03-06T14:24:04.385Z,15.81
2023-03-06T14:26:39.519Z,15.48
2023-03-06T14:29:20.810Z,15.55
2023-03-06T14:31:51.710Z,15.93
2023-03-06T14:34:30.902Z,16.40
2023-03-06T14:37:02.655Z,16.87
2023-03-06T14:39:40.647Z,17.29
2023-03-06T14:42:27.045Z,18.06
2023-03-06T14:45:16.765Z,18.30
2023-03-06T14:47:52.097Z,18.49
2023-03-06T14:50:29.345Z,18.86
2023-03-06T14:53:10.032Z,18.98
2023-03-06T14:56:02.270Z,18.69
2023-03-06T14:58:41.872Z,19.07
2023-03-06T15:01:13.267Z,19.66
2023-03-06T15:03:53.383Z,20.22
2023-03-06T15:06:31.567Z,20.67
2023-03-06T15:09:08.109Z,20.94
2023-03-06T15:12:08.155Z,20.99
2023-03-06T15:14:39.407Z,20.60
2023-03-06T15:17:20.174Z,19.68
2023-03-06T15:19:51.827Z,18.62
2023-03-06T15:22:34.139Z,17.42
2023-03-06T15:25:23.843Z,16.28
2023-03-06T15:27:58.342Z,15.45
2023-03-06T15:30:35.209Z,14.77
2023-03-06T15:33:10.651Z,14.27
2023-03-06T15:35:39.515Z,13.84
2023-03-06T15:38:42.192Z,13.47
2023-03-06T15:41:38.944Z,13.08
2023-03-06T15:44:13.508Z,12.76
2023-03-06T15:46:42.262Z,12.48
2023-03-06T15:49:14.863Z,12.14
2023-03-06T15:51:43.426Z,11.83
2023-03-06T15:54:12.764Z,11.46
2023-03-06T15:56:44.614Z,11.20
2023-03-06T15:59:25.183Z,10.99
2023-03-06T16:01:54.461Z,10.74
2023-03-06T16:04:22.829Z,10.50
2023-03-06T16:06:51.135Z,10.30
2023-03-06T16:09:19.726Z,10.10
2023-03-06T16:11:49.071Z,9.91
2023-03-06T16:14:24.080Z,9.71
2023-03-06T16:16:56.674Z,9.48
2023-03-06T16:19:27.646Z,9.24
2023-03-06T16:21:57.170Z,8.99
2023-03-06T16:24:26.835Z,8.77
2023-03-06T16:26:56.833Z,8.56
2023-03-06T16:29:27.472Z,8.33
2023-03-06T16:31:57.715Z,8.13
2023-03-06T16:34:26.212Z,7.95
2023-03-06T16:36:55.088Z,7.76
2023-03-06T16:39:24.789Z,7.58
2023-03-06T16:41:53.790Z,7.34
2023-03-06T16:44:22.414Z,7.17
2023-03-06T16:46:51.364Z,7.00
2023-03-06T16:49:22.678Z,6.87
2023-03-06T16:51:51.938Z,6.72
2023-03-06T16:54:22.057Z,6.60
2023-03-06T16:56:50.761Z,6.46
2023-03-06T16:59:19.134Z,6.36
2023-03-06T17:01:47.680Z,6.28
2023-03-06T17:04:16.106Z,6.17
2023-03-06T17:06:44.488Z,6.04
2023-03-06T17:09:14.631Z,5.93
2023-03-06T17:11:46.946Z,5.82
2023-03-06T17:14:15.587Z,5.65
2023-03-06T17:16:43.870Z,5.53
2023-03-06T17:19:16.746Z,5.44
2023-03-06T17:21:45.029Z,5.37
2023-03-06T17:24:13.416Z,5.31
2023-03-06T17:26:43.250Z,5.26
2023-03-06T17:29:12.252Z,5.19
2023-03-06T17:31:40.829Z,5.11
2023-03-06T17:34:09.118Z,5.04
2023-03-06T17:36:37.381Z,4.92
2023-03-06T17:39:05.979Z,4.81
2023-03-06T17:41:34.876Z,4.73
2023-03-06T17:44:03.467Z,4.69
2023-03-06T17:46:32.424Z,4.65
2023-03-06T17:49:01.047Z,4.60
2023-03-06T17:51:30.045Z,4.57
2023-03-06T17:53:58.325Z,4.51
2023-03-06T17:56:30.195Z,4.40
2023-03-06T17:59:00.536Z,4.28
2023-03-06T18:01:31.724Z,4.17
2023-03-06T18:04:02.414Z,4.04
2023-03-06T18:06:33.555Z,3.92
2023-03-06T18:09:02.346Z,3.84
2023-03-06T18:11:31.475Z,3.74
2023-03-06T18:13:59.728Z,3.65
2023-03-06T18:16:29.261Z,3.59
2023-03-06T18:18:57.664Z,3.50
2023-03-06T18:21:26.526Z,3.41
2023-03-06T18:23:55.124Z,3.34
2023-03-06T18:26:29.570Z,3.28
2023-03-06T18:29:01.588Z,3.18
2023-03-06T18:31:40.658Z,3.11
2023-03-06T18:34:14.345Z,3.05
2023-03-06T18:36:43.756Z,3.00
2023-03-06T18:39:13.796Z,2.93
2023-03-06T18:41:42.552Z,2.84
2023-03-06T18:44:15.537Z,2.75
2023-03-06T18:46:44.055Z,2.69
2023-03-06T18:49:13.655Z,2.67
2023-03-06T18:51:42.659Z,2.65
2023-03-06T18:54:11.935Z,2.61
2023-03-06T18:56:44.329Z,2.56
2023-03-06T18:59:18.505Z,2.50
2023-03-06T19:01:47.869Z,2.43
2023-03-06T19:04:16.287Z,2.37
2023-03-06T19:06:44.729Z,2.32
2023-03-06T19:09:13.719Z,2.30
2023-03-06T19:11:43.947Z,2.27
2023-03-06T19:14:12.227Z,2.25
2023-03-06T19:16:40.842Z,2.20
2023-03-06T19:19:09.606Z,2.11
2023-03-06T19:21:37.890Z,2.03
2023-03-06T19:24:13.441Z,1.95
2023-03-06T19:26:42.267Z,1.88
2023-03-06T19:29:10.618Z,1.83
2023-03-06T19:31:38.853Z,1.77
2023-03-06T19:34:07.288Z,1.74
2023-03-06T19:36:38.737Z,1.73
2023-03-06T19:39:07.726Z,1.69
2023-03-06T19:41:36.631Z,1.65
2023-03-06T19:44:06.189Z,1.62
2023-03-06T19:46:36.503Z,1.61
2023-03-06T19:49:12.436Z,1.61
2023-03-06T19:51:41.242Z,1.60
2023-03-06T19:54:12.464Z,1.57
2023-03-06T19:56:41.190Z,1.51
2023-03-06T19:59:10.266Z,1.43
2023-03-06T20:01:38.811Z,1.39
2023-03-06T20:04:07.191Z,1.36
2023-03-06T20:06:37.774Z,1.33
2023-03-06T20:09:08.746Z,1.32
2023-03-06T20:11:38.771Z,1.30
2023-03-06T20:14:08.864Z,1.29
2023-03-06T20:16:37.693Z,1.26
2023-03-06T20:19:06.815Z,1.22
2023-03-06T20:21:37.855Z,1.20
2023-03-06T20:24:08.113Z,1.20
2023-03-06T20:26:38.290Z,1.19
2023-03-06T20:29:06.732Z,1.17
2023-03-06T20:31:35.635Z,1.16
2023-03-06T20:34:05.127Z,1.14
2023-03-06T20:36:36.340Z,1.12
2023-03-06T20:39:09.069Z,1.08
2023-03-06T20:41:37.795Z,1.05
2023-03-06T20:44:08.640Z,1.03
2023-03-06T20:46:37.034Z,1.00
2023-03-06T20:49:06.088Z,0.96
2023-03-06T20:51:39.282Z,0.92
2023-03-06T20:54:10.132Z,0.91
2023-03-06T20:56:39.863Z,0.89
2023-03-06T20:59:11.923Z,0.87
2023-03-06T21:01:42.609Z,0.85
2023-03-06T21:04:16.150Z,0.83
2023-03-06T21:06:47.096Z,0.81
2023-03-06T21:09:17.534Z,0.77
2023-03-06T21:11:46.694Z,0.75
2023-03-06T21:14:15.664Z,0.72
2023-03-06T21:16:44.498Z,0.72
2023-03-06T21:19:12.905Z,0.73
2023-03-06T21:21:41.489Z,0.70
2023-03-06T21:24:09.681Z,0.71
2023-03-06T21:26:38.157Z,0.74
2023-03-06T21:29:06.661Z,0.76
2023-03-06T21:31:35.082Z,0.78
2023-03-06T21:34:05.329Z,0.80
2023-03-06T21:36:34.352Z,0.81
2023-03-06T21:39:06.327Z,0.80
2023-03-06T21:41:35.152Z,0.77
2023-03-06T21:44:05.652Z,0.76
2023-03-06T21:46:35.185Z,0.71
2023-03-06T21:49:05.374Z,0.67
2023-03-06T21:51:34.468Z,0.64
2023-03-06T21:54:04.111Z,0.62
2023-03-06T21:56:33.727Z,0.63
2023-03-06T21:59:02.299Z,0.63
2023-03-06T22:01:30.892Z,0.63
2023-03-06T22:04:00.187Z,0.64
2023-03-06T22:06:30.539Z,0.63
2023-03-06T22:09:00.534Z,0.61
2023-03-06T22:11:31.567Z,0.60
2023-03-06T22:14:00.134Z,0.59
2023-03-06T22:16:28.630Z,0.58
2023-03-06T22:18:56.976Z,0.57
2023-03-06T22:21:25.536Z,0.58
2023-03-06T22:23:59.790Z,0.61
2023-03-06T22:26:29.997Z,0.61
2023-03-06T22:28:58.567Z,0.60
2023-03-06T22:31:29.073Z,0.61
2023-03-06T22:34:00.314Z,0.63
2023-03-06T22:36:30.869Z,0.66
2023-03-06T22:39:02.289Z,0.69
2023-03-06T22:41:31.253Z,0.72
2023-03-06T22:44:02.029Z,0.73
2023-03-06T22:46:31.705Z,0.73
2023-03-06T22:49:01.116Z,0.73
2023-03-06T22:51:29.792Z,0.72
2023-03-06T22:53:59.002Z,0.71
2023-03-06T22:56:27.724Z,0.71
2023-03-06T22:58:57.848Z,0.71
2023-03-06T23:01:32.279Z,0.70
2023-03-06T23:04:08.597Z,0.68
2023-03-06T23:06:42.117Z,0.66
2023-03-06T23:09:21.632Z,0.67
2023-03-06T23:12:11.669Z,0.67
2023-03-06T23:14:58.747Z,0.67
2023-03-06T23:17:45.731Z,0.67
2023-03-06T23:20:33.005Z,0.67
2023-03-06T23:23:20.059Z,0.68
2023-03-06T23:25:49.575Z,0.68
2023-03-06T23:28:18.479Z,0.67
2023-03-06T23:30:47.184Z,0.65
2023-03-06T23:33:15.662Z,0.64
2023-03-06T23:35:44.907Z,0.63
2023-03-06T23:38:13.915Z,0.62
2023-03-06T23:40:42.745Z,0.60
2023-03-06T23:43:11.126Z,0.58
2023-03-06T23:45:39.933Z,0.58
2023-03-06T23:48:08.410Z,0.58
2023-03-06T23:50:39.920Z,0.58
2023-03-06T23:53:08.655Z,0.59
2023-03-06T23:55:41.654Z,0.57
2023-03-06T23:58:11.056Z,0.57
